Terminal Aerodrome Forecast
Issued by NWS

Home | Current Version | Previous Version | Graphics & Text | Print | Product List | Glossary On
Versions: 1 2 3 4 5 6 7 8 9 10 11 12 13 14 15 16 17 18
000
FTUS43 KGRB 230520
TAFATW
TAF
KATW 230520Z 2306/2406 VRB03KT 6SM BR BKN250
     FM230900 24003KT 1 1/2SM BR SKC
      TEMPO 2310/2314 1/2SM FG
     FM231400 VRB03KT P6SM SCT250
     FM232100 01005KT P6SM SCT035 BKN100
     FM240300 32007KT P6SM SCT025 BKN080 PROB30 2403/2406 5SM -SHRA
      BR BKN025=

USA.gov is the U.S. government's official web portal to all federal, state and local government web resources and services.